sensor_id;sensor_type;location;lat;lon;timestamp;P1;durP1;ratioP1;P2;durP2;ratioP2
49556;SDS011;35462;45.048;7.666;2023-03-01T00:10:34;22.38;;;13.93;;
49556;SDS011;35462;45.048;7.666;2023-03-01T00:25:51;20.65;;;14.00;;
49556;SDS011;35462;45.048;7.666;2023-03-01T00:41:08;24.63;;;12.63;;
49556;SDS011;35462;45.048;7.666;2023-03-01T00:56:31;20.17;;;14.75;;
49556;SDS011;35462;45.048;7.666;2023-03-01T01:11:48;19.60;;;13.27;;
49556;SDS011;35462;45.048;7.666;2023-03-01T01:27:13;21.38;;;13.50;;
49556;SDS011;35462;45.048;7.666;2023-03-01T01:42:29;22.20;;;15.25;;
49556;SDS011;35462;45.048;7.666;2023-03-01T01:57:48;23.15;;;14.82;;
49556;SDS011;35462;45.048;7.666;2023-03-01T02:13:06;20.80;;;14.10;;
49556;SDS011;35462;45.048;7.666;2023-03-01T02:28:30;19.73;;;12.68;;
49556;SDS011;35462;45.048;7.666;2023-03-01T02:43:49;23.08;;;14.85;;
49556;SDS011;35462;45.048;7.666;2023-03-01T02:59:07;23.17;;;14.63;;
49556;SDS011;35462;45.048;7.666;2023-03-01T03:29:42;24.02;;;13.98;;
49556;SDS011;35462;45.048;7.666;2023-03-01T03:44:59;19.38;;;12.13;;
49556;SDS011;35462;45.048;7.666;2023-03-01T04:00:15;16.85;;;12.05;;
49556;SDS011;35462;45.048;7.666;2023-03-01T04:15:33;20.35;;;13.43;;
49556;SDS011;35462;45.048;7.666;2023-03-01T04:30:52;20.27;;;12.13;;
49556;SDS011;35462;45.048;7.666;2023-03-01T04:46:10;17.65;;;11.50;;
49556;SDS011;35462;45.048;7.666;2023-03-01T05:16:46;19.73;;;12.95;;
49556;SDS011;35462;45.048;7.666;2023-03-01T05:32:02;22.27;;;14.10;;
49556;SDS011;35462;45.048;7.666;2023-03-01T05:47:18;20.27;;;12.30;;
49556;SDS011;35462;45.048;7.666;2023-03-01T06:02:36;19.60;;;13.48;;
49556;SDS011;35462;45.048;7.666;2023-03-01T06:17:53;21.88;;;15.02;;
49556;SDS011;35462;45.048;7.666;2023-03-01T06:33:12;24.10;;;15.10;;
49556;SDS011;35462;45.048;7.666;2023-03-01T06:48:29;23.40;;;14.38;;
49556;SDS011;35462;45.048;7.666;2023-03-01T07:03:45;24.05;;;15.70;;
49556;SDS011;35462;45.048;7.666;2023-03-01T07:19:01;26.00;;;16.15;;
49556;SDS011;35462;45.048;7.666;2023-03-01T07:34:17;27.20;;;17.50;;
49556;SDS011;35462;45.048;7.666;2023-03-01T07:49:33;25.63;;;16.55;;
49556;SDS011;35462;45.048;7.666;2023-03-01T08:04:49;25.92;;;17.73;;
49556;SDS011;35462;45.048;7.666;2023-03-01T08:20:05;36.13;;;19.50;;
49556;SDS011;35462;45.048;7.666;2023-03-01T08:35:22;27.40;;;18.52;;
49556;SDS011;35462;45.048;7.666;2023-03-01T08:50:38;26.17;;;17.92;;
49556;SDS011;35462;45.048;7.666;2023-03-01T09:05:59;23.05;;;16.77;;
49556;SDS011;35462;45.048;7.666;2023-03-01T09:21:16;27.02;;;19.00;;
49556;SDS011;35462;45.048;7.666;2023-03-01T09:36:33;30.52;;;19.35;;
49556;SDS011;35462;45.048;7.666;2023-03-01T09:51:54;27.33;;;19.02;;
49556;SDS011;35462;45.048;7.666;2023-03-01T10:22:32;16.80;;;11.33;;
49556;SDS011;35462;45.048;7.666;2023-03-01T10:53:22;25.60;;;16.95;;
49556;SDS011;35462;45.048;7.666;2023-03-01T11:08:42;30.45;;;18.23;;
49556;SDS011;35462;45.048;7.666;2023-03-01T11:24:00;38.23;;;20.07;;
49556;SDS011;35462;45.048;7.666;2023-03-01T11:39:24;33.35;;;20.70;;
49556;SDS011;35462;45.048;7.666;2023-03-01T12:10:20;30.23;;;19.42;;
49556;SDS011;35462;45.048;7.666;2023-03-01T12:57:02;23.00;;;15.48;;
49556;SDS011;35462;45.048;7.666;2023-03-01T13:43:52;22.98;;;15.70;;
49556;SDS011;35462;45.048;7.666;2023-03-01T13:59:18;23.58;;;14.88;;
49556;SDS011;35462;45.048;7.666;2023-03-01T14:14:42;18.75;;;13.68;;
49556;SDS011;35462;45.048;7.666;2023-03-01T14:30:04;24.75;;;14.00;;
49556;SDS011;35462;45.048;7.666;2023-03-01T14:45:29;28.38;;;16.25;;
49556;SDS011;35462;45.048;7.666;2023-03-01T15:00:49;25.35;;;16.27;;
49556;SDS011;35462;45.048;7.666;2023-03-01T15:16:11;24.33;;;15.63;;
49556;SDS011;35462;45.048;7.666;2023-03-01T15:31:31;24.00;;;15.70;;
49556;SDS011;35462;45.048;7.666;2023-03-01T15:46:50;27.83;;;17.23;;
49556;SDS011;35462;45.048;7.666;2023-03-01T16:02:08;28.63;;;18.40;;
49556;SDS011;35462;45.048;7.666;2023-03-01T16:17:26;29.53;;;18.13;;
49556;SDS011;35462;45.048;7.666;2023-03-01T16:32:42;17.70;;;11.60;;
49556;SDS011;35462;45.048;7.666;2023-03-01T16:48:00;13.57;;;9.30;;
49556;SDS011;35462;45.048;7.666;2023-03-01T17:53:11;11.70;;;8.13;;
49556;SDS011;35462;45.048;7.666;2023-03-01T18:08:29;12.77;;;8.13;;
49556;SDS011;35462;45.048;7.666;2023-03-01T18:23:44;10.00;;;6.72;;
49556;SDS011;35462;45.048;7.666;2023-03-01T18:39:01;11.60;;;8.45;;
49556;SDS011;35462;45.048;7.666;2023-03-01T18:54:19;13.60;;;8.50;;
49556;SDS011;35462;45.048;7.666;2023-03-01T19:09:35;14.32;;;7.38;;
49556;SDS011;35462;45.048;7.666;2023-03-01T19:24:51;11.23;;;8.57;;
49556;SDS011;35462;45.048;7.666;2023-03-01T19:40:07;10.35;;;7.55;;
49556;SDS011;35462;45.048;7.666;2023-03-01T19:55:23;12.63;;;7.80;;
49556;SDS011;35462;45.048;7.666;2023-03-01T20:10:40;4.57;;;3.13;;
49556;SDS011;35462;45.048;7.666;2023-03-01T20:41:33;10.65;;;7.30;;
49556;SDS011;35462;45.048;7.666;2023-03-01T20:56:49;11.98;;;7.93;;
49556;SDS011;35462;45.048;7.666;2023-03-01T21:12:04;12.57;;;8.07;;
49556;SDS011;35462;45.048;7.666;2023-03-01T21:27:20;11.95;;;8.25;;
49556;SDS011;35462;45.048;7.666;2023-03-01T21:42:36;10.63;;;7.72;;
49556;SDS011;35462;45.048;7.666;2023-03-01T21:57:53;12.95;;;8.57;;
49556;SDS011;35462;45.048;7.666;2023-03-01T22:13:09;9.95;;;6.63;;
49556;SDS011;35462;45.048;7.666;2023-03-01T22:28:24;10.40;;;7.35;;
49556;SDS011;35462;45.048;7.666;2023-03-01T22:43:40;12.05;;;7.60;;
49556;SDS011;35462;45.048;7.666;2023-03-01T22:58:57;6.47;;;4.15;;
49556;SDS011;35462;45.048;7.666;2023-03-01T23:14:13;5.07;;;3.55;;
49556;SDS011;35462;45.048;7.666;2023-03-01T23:29:30;4.93;;;4.35;;
49556;SDS011;35462;45.048;7.666;2023-03-01T23:44:46;7.57;;;4.40;;
